sensor_id;sensor_type;location;lat;lon;timestamp;P1;durP1;ratioP1;P2;durP2;ratioP2
54679;SDS011;40578;53.178;5.846;2024-01-27T00:01:16;17.25;;;3.42;;
54679;SDS011;40578;53.178;5.846;2024-01-27T00:03:42;23.17;;;4.17;;
54679;SDS011;40578;53.178;5.846;2024-01-27T00:06:08;24.17;;;4.53;;
54679;SDS011;40578;53.178;5.846;2024-01-27T00:08:33;22.40;;;4.27;;
54679;SDS011;40578;53.178;5.846;2024-01-27T00:11:00;20.90;;;5.37;;
54679;SDS011;40578;53.178;5.846;2024-01-27T00:13:26;21.67;;;3.90;;
54679;SDS011;40578;53.178;5.846;2024-01-27T00:15:51;24.07;;;3.67;;
54679;SDS011;40578;53.178;5.846;2024-01-27T00:18:19;20.73;;;4.50;;
54679;SDS011;40578;53.178;5.846;2024-01-27T00:20:45;27.10;;;3.72;;
54679;SDS011;40578;53.178;5.846;2024-01-27T00:23:11;25.67;;;4.90;;
54679;SDS011;40578;53.178;5.846;2024-01-27T00:25:36;34.60;;;4.47;;
54679;SDS011;40578;53.178;5.846;2024-01-27T00:28:02;23.33;;;3.90;;
54679;SDS011;40578;53.178;5.846;2024-01-27T00:30:28;22.60;;;3.90;;
54679;SDS011;40578;53.178;5.846;2024-01-27T00:32:53;20.27;;;3.30;;
54679;SDS011;40578;53.178;5.846;2024-01-27T00:35:19;17.50;;;3.47;;
54679;SDS011;40578;53.178;5.846;2024-01-27T00:37:46;18.53;;;3.53;;
54679;SDS011;40578;53.178;5.846;2024-01-27T00:40:12;21.42;;;3.90;;
54679;SDS011;40578;53.178;5.846;2024-01-27T00:42:39;26.20;;;4.10;;
54679;SDS011;40578;53.178;5.846;2024-01-27T00:45:05;25.98;;;3.47;;
54679;SDS011;40578;53.178;5.846;2024-01-27T00:47:31;18.30;;;2.75;;
54679;SDS011;40578;53.178;5.846;2024-01-27T00:49:57;19.73;;;3.83;;
54679;SDS011;40578;53.178;5.846;2024-01-27T00:52:23;19.20;;;3.43;;
54679;SDS011;40578;53.178;5.846;2024-01-27T00:54:49;27.53;;;3.47;;
54679;SDS011;40578;53.178;5.846;2024-01-27T00:57:14;23.15;;;3.40;;
54679;SDS011;40578;53.178;5.846;2024-01-27T00:59:40;32.85;;;3.90;;
54679;SDS011;40578;53.178;5.846;2024-01-27T01:02:06;24.60;;;4.37;;
54679;SDS011;40578;53.178;5.846;2024-01-27T01:04:32;24.60;;;3.30;;
54679;SDS011;40578;53.178;5.846;2024-01-27T01:06:58;25.77;;;4.03;;
54679;SDS011;40578;53.178;5.846;2024-01-27T01:09:24;24.05;;;3.90;;
54679;SDS011;40578;53.178;5.846;2024-01-27T01:11:50;37.08;;;4.55;;
54679;SDS011;40578;53.178;5.846;2024-01-27T01:14:16;15.90;;;3.00;;
54679;SDS011;40578;53.178;5.846;2024-01-27T01:16:42;21.00;;;3.13;;
54679;SDS011;40578;53.178;5.846;2024-01-27T01:19:07;21.57;;;4.23;;
54679;SDS011;40578;53.178;5.846;2024-01-27T01:21:33;22.77;;;3.43;;
54679;SDS011;40578;53.178;5.846;2024-01-27T01:23:59;25.90;;;4.07;;
54679;SDS011;40578;53.178;5.846;2024-01-27T01:26:25;23.60;;;3.90;;
54679;SDS011;40578;53.178;5.846;2024-01-27T01:28:50;20.40;;;3.60;;
54679;SDS011;40578;53.178;5.846;2024-01-27T01:31:16;18.50;;;3.58;;
54679;SDS011;40578;53.178;5.846;2024-01-27T01:33:42;23.97;;;3.70;;
54679;SDS011;40578;53.178;5.846;2024-01-27T01:36:08;20.50;;;3.53;;
54679;SDS011;40578;53.178;5.846;2024-01-27T01:38:34;23.03;;;3.53;;
54679;SDS011;40578;53.178;5.846;2024-01-27T01:41:00;21.50;;;3.57;;
54679;SDS011;40578;53.178;5.846;2024-01-27T01:43:25;20.70;;;3.63;;
54679;SDS011;40578;53.178;5.846;2024-01-27T01:45:51;20.30;;;3.60;;
54679;SDS011;40578;53.178;5.846;2024-01-27T01:48:20;21.38;;;2.97;;
54679;SDS011;40578;53.178;5.846;2024-01-27T01:50:46;14.70;;;2.80;;
54679;SDS011;40578;53.178;5.846;2024-01-27T01:53:13;18.33;;;3.77;;
54679;SDS011;40578;53.178;5.846;2024-01-27T01:55:39;15.02;;;3.15;;
54679;SDS011;40578;53.178;5.846;2024-01-27T01:58:06;23.80;;;3.83;;
54679;SDS011;40578;53.178;5.846;2024-01-27T02:02:57;18.10;;;3.67;;
54679;SDS011;40578;53.178;5.846;2024-01-27T02:05:23;20.75;;;3.33;;
54679;SDS011;40578;53.178;5.846;2024-01-27T02:07:50;20.00;;;3.42;;
54679;SDS011;40578;53.178;5.846;2024-01-27T02:10:17;24.23;;;3.67;;
54679;SDS011;40578;53.178;5.846;2024-01-27T02:12:43;21.38;;;3.40;;
54679;SDS011;40578;53.178;5.846;2024-01-27T02:15:13;19.20;;;2.97;;
54679;SDS011;40578;53.178;5.846;2024-01-27T02:17:39;17.50;;;3.00;;
54679;SDS011;40578;53.178;5.846;2024-01-27T02:20:06;21.27;;;3.35;;
54679;SDS011;40578;53.178;5.846;2024-01-27T02:22:35;21.67;;;3.95;;
54679;SDS011;40578;53.178;5.846;2024-01-27T02:25:04;21.35;;;3.92;;
54679;SDS011;40578;53.178;5.846;2024-01-27T02:27:30;28.02;;;4.07;;
54679;SDS011;40578;53.178;5.846;2024-01-27T02:29:56;20.53;;;3.77;;
54679;SDS011;40578;53.178;5.846;2024-01-27T02:32:21;21.63;;;3.20;;
54679;SDS011;40578;53.178;5.846;2024-01-27T02:34:47;21.73;;;3.57;;
54679;SDS011;40578;53.178;5.846;2024-01-27T02:37:13;17.30;;;3.10;;
54679;SDS011;40578;53.178;5.846;2024-01-27T02:39:39;20.42;;;3.15;;
54679;SDS011;40578;53.178;5.846;2024-01-27T02:42:05;19.55;;;3.47;;
54679;SDS011;40578;53.178;5.846;2024-01-27T02:44:31;31.52;;;4.53;;
54679;SDS011;40578;53.178;5.846;2024-01-27T02:46:57;23.57;;;3.63;;
54679;SDS011;40578;53.178;5.846;2024-01-27T02:49:23;18.17;;;3.83;;
54679;SDS011;40578;53.178;5.846;2024-01-27T02:51:49;20.80;;;4.03;;
54679;SDS011;40578;53.178;5.846;2024-01-27T02:54:15;20.00;;;3.20;;
54679;SDS011;40578;53.178;5.846;2024-01-27T02:56:40;16.40;;;3.30;;
54679;SDS011;40578;53.178;5.846;2024-01-27T02:59:06;24.40;;;3.60;;
54679;SDS011;40578;53.178;5.846;2024-01-27T03:01:31;19.67;;;3.60;;
54679;SDS011;40578;53.178;5.846;2024-01-27T03:03:57;22.60;;;3.90;;
54679;SDS011;40578;53.178;5.846;2024-01-27T03:06:24;24.73;;;3.63;;
54679;SDS011;40578;53.178;5.846;2024-01-27T03:08:49;26.83;;;3.70;;
54679;SDS011;40578;53.178;5.846;2024-01-27T03:11:15;20.53;;;3.93;;
54679;SDS011;40578;53.178;5.846;2024-01-27T03:13:40;30.00;;;4.00;;
54679;SDS011;40578;53.178;5.846;2024-01-27T03:16:10;22.88;;;3.42;;
54679;SDS011;40578;53.178;5.846;2024-01-27T03:18:36;26.75;;;3.47;;
54679;SDS011;40578;53.178;5.846;2024-01-27T03:21:02;26.30;;;3.55;;
54679;SDS011;40578;53.178;5.846;2024-01-27T03:23:28;22.60;;;3.85;;
54679;SDS011;40578;53.178;5.846;2024-01-27T03:25:54;27.33;;;4.07;;
54679;SDS011;40578;53.178;5.846;2024-01-27T03:28:20;35.77;;;4.73;;
54679;SDS011;40578;53.178;5.846;2024-01-27T03:30:46;22.77;;;3.38;;
54679;SDS011;40578;53.178;5.846;2024-01-27T03:33:12;20.53;;;4.23;;
54679;SDS011;40578;53.178;5.846;2024-01-27T03:35:38;19.25;;;3.35;;
54679;SDS011;40578;53.178;5.846;2024-01-27T03:40:33;19.30;;;3.58;;
54679;SDS011;40578;53.178;5.846;2024-01-27T03:42:58;22.67;;;3.30;;
54679;SDS011;40578;53.178;5.846;2024-01-27T03:45:24;23.70;;;3.90;;
54679;SDS011;40578;53.178;5.846;2024-01-27T03:47:50;21.57;;;4.13;;
54679;SDS011;40578;53.178;5.846;2024-01-27T03:50:15;25.60;;;3.70;;
54679;SDS011;40578;53.178;5.846;2024-01-27T03:52:41;22.77;;;3.53;;
54679;SDS011;40578;53.178;5.846;2024-01-27T03:55:07;15.77;;;3.70;;
54679;SDS011;40578;53.178;5.846;2024-01-27T03:57:32;20.07;;;3.60;;
54679;SDS011;40578;53.178;5.846;2024-01-27T03:59:58;20.83;;;3.30;;
54679;SDS011;40578;53.178;5.846;2024-01-27T04:02:24;20.80;;;3.90;;
54679;SDS011;40578;53.178;5.846;2024-01-27T04:04:49;24.80;;;3.90;;
54679;SDS011;40578;53.178;5.846;2024-01-27T04:07:15;20.80;;;3.70;;
54679;SDS011;40578;53.178;5.846;2024-01-27T04:09:41;18.73;;;3.43;;
54679;SDS011;40578;53.178;5.846;2024-01-27T04:12:07;16.58;;;3.25;;
54679;SDS011;40578;53.178;5.846;2024-01-27T04:14:32;24.43;;;4.13;;
54679;SDS011;40578;53.178;5.846;2024-01-27T04:16:58;20.15;;;3.10;;
54679;SDS011;40578;53.178;5.846;2024-01-27T04:19:24;16.63;;;3.73;;
54679;SDS011;40578;53.178;5.846;2024-01-27T04:21:50;19.97;;;3.63;;
54679;SDS011;40578;53.178;5.846;2024-01-27T04:24:15;28.23;;;4.60;;
54679;SDS011;40578;53.178;5.846;2024-01-27T04:26:41;20.73;;;4.13;;
54679;SDS011;40578;53.178;5.846;2024-01-27T04:29:07;22.00;;;3.70;;
54679;SDS011;40578;53.178;5.846;2024-01-27T04:31:33;24.98;;;4.03;;
54679;SDS011;40578;53.178;5.846;2024-01-27T04:33:59;18.60;;;3.87;;
54679;SDS011;40578;53.178;5.846;2024-01-27T04:36:28;22.00;;;4.10;;
54679;SDS011;40578;53.178;5.846;2024-01-27T04:38:54;27.23;;;4.20;;
54679;SDS011;40578;53.178;5.846;2024-01-27T04:41:20;23.05;;;3.65;;
54679;SDS011;40578;53.178;5.846;2024-01-27T04:43:46;25.07;;;4.17;;
54679;SDS011;40578;53.178;5.846;2024-01-27T04:46:11;23.40;;;3.90;;
54679;SDS011;40578;53.178;5.846;2024-01-27T04:48:37;24.80;;;4.83;;
54679;SDS011;40578;53.178;5.846;2024-01-27T04:51:03;38.03;;;5.73;;
54679;SDS011;40578;53.178;5.846;2024-01-27T04:53:28;20.20;;;3.97;;
54679;SDS011;40578;53.178;5.846;2024-01-27T04:55:54;21.13;;;3.23;;
54679;SDS011;40578;53.178;5.846;2024-01-27T04:58:19;17.27;;;3.10;;
54679;SDS011;40578;53.178;5.846;2024-01-27T05:00:45;27.63;;;4.53;;
54679;SDS011;40578;53.178;5.846;2024-01-27T05:03:11;22.13;;;3.88;;
54679;SDS011;40578;53.178;5.846;2024-01-27T05:05:42;26.33;;;4.07;;
54679;SDS011;40578;53.178;5.846;2024-01-27T05:08:08;22.10;;;4.10;;
54679;SDS011;40578;53.178;5.846;2024-01-27T05:10:37;23.38;;;3.65;;
54679;SDS011;40578;53.178;5.846;2024-01-27T05:13:02;21.37;;;3.77;;
54679;SDS011;40578;53.178;5.846;2024-01-27T05:15:28;20.63;;;3.53;;
54679;SDS011;40578;53.178;5.846;2024-01-27T05:17:54;18.13;;;3.53;;
54679;SDS011;40578;53.178;5.846;2024-01-27T05:20:19;15.97;;;3.60;;
54679;SDS011;40578;53.178;5.846;2024-01-27T05:22:45;27.13;;;3.67;;
54679;SDS011;40578;53.178;5.846;2024-01-27T05:25:11;20.73;;;3.40;;
54679;SDS011;40578;53.178;5.846;2024-01-27T05:27:37;24.13;;;3.50;;
54679;SDS011;40578;53.178;5.846;2024-01-27T05:30:04;22.77;;;3.60;;
54679;SDS011;40578;53.178;5.846;2024-01-27T05:32:31;16.08;;;3.53;;
54679;SDS011;40578;53.178;5.846;2024-01-27T05:34:56;24.40;;;3.30;;
54679;SDS011;40578;53.178;5.846;2024-01-27T05:37:22;24.47;;;3.67;;
54679;SDS011;40578;53.178;5.846;2024-01-27T05:39:48;22.97;;;3.37;;
54679;SDS011;40578;53.178;5.846;2024-01-27T05:42:13;26.17;;;3.90;;
54679;SDS011;40578;53.178;5.846;2024-01-27T05:44:39;21.50;;;3.13;;
54679;SDS011;40578;53.178;5.846;2024-01-27T05:47:06;19.00;;;3.28;;
54679;SDS011;40578;53.178;5.846;2024-01-27T05:49:32;20.50;;;3.55;;
54679;SDS011;40578;53.178;5.846;2024-01-27T05:51:57;21.03;;;3.77;;
54679;SDS011;40578;53.178;5.846;2024-01-27T05:54:24;30.03;;;4.03;;
54679;SDS011;40578;53.178;5.846;2024-01-27T05:56:50;29.27;;;3.42;;
54679;SDS011;40578;53.178;5.846;2024-01-27T05:59:15;20.00;;;3.53;;
54679;SDS011;40578;53.178;5.846;2024-01-27T06:01:41;22.03;;;4.30;;
54679;SDS011;40578;53.178;5.846;2024-01-27T06:04:08;22.95;;;4.63;;
54679;SDS011;40578;53.178;5.846;2024-01-27T06:06:34;21.43;;;4.00;;
54679;SDS011;40578;53.178;5.846;2024-01-27T06:09:02;22.98;;;3.42;;
54679;SDS011;40578;53.178;5.846;2024-01-27T06:11:28;23.50;;;3.65;;
54679;SDS011;40578;53.178;5.846;2024-01-27T06:13:56;21.90;;;4.07;;
54679;SDS011;40578;53.178;5.846;2024-01-27T06:16:23;20.38;;;3.15;;
54679;SDS011;40578;53.178;5.846;2024-01-27T06:18:49;25.80;;;4.27;;
54679;SDS011;40578;53.178;5.846;2024-01-27T06:21:14;16.40;;;3.00;;
54679;SDS011;40578;53.178;5.846;2024-01-27T06:23:40;21.40;;;3.58;;
54679;SDS011;40578;53.178;5.846;2024-01-27T06:26:06;23.37;;;3.97;;
54679;SDS011;40578;53.178;5.846;2024-01-27T06:28:32;14.57;;;3.30;;
54679;SDS011;40578;53.178;5.846;2024-01-27T06:30:59;21.65;;;3.65;;
54679;SDS011;40578;53.178;5.846;2024-01-27T06:33:25;24.48;;;3.90;;
54679;SDS011;40578;53.178;5.846;2024-01-27T06:35:51;19.63;;;3.97;;
54679;SDS011;40578;53.178;5.846;2024-01-27T06:38:17;14.17;;;3.60;;
54679;SDS011;40578;53.178;5.846;2024-01-27T06:40:42;23.83;;;4.80;;
54679;SDS011;40578;53.178;5.846;2024-01-27T06:43:09;22.47;;;3.33;;
54679;SDS011;40578;53.178;5.846;2024-01-27T06:45:37;24.48;;;4.32;;
54679;SDS011;40578;53.178;5.846;2024-01-27T06:48:02;25.53;;;4.17;;
54679;SDS011;40578;53.178;5.846;2024-01-27T06:50:29;23.63;;;3.65;;
54679;SDS011;40578;53.178;5.846;2024-01-27T06:52:54;32.13;;;5.07;;
54679;SDS011;40578;53.178;5.846;2024-01-27T06:55:20;24.07;;;4.17;;
54679;SDS011;40578;53.178;5.846;2024-01-27T06:57:45;17.57;;;3.63;;
54679;SDS011;40578;53.178;5.846;2024-01-27T07:00:11;26.77;;;4.67;;
54679;SDS011;40578;53.178;5.846;2024-01-27T07:02:39;24.35;;;4.40;;
54679;SDS011;40578;53.178;5.846;2024-01-27T07:05:08;23.25;;;3.88;;
54679;SDS011;40578;53.178;5.846;2024-01-27T07:07:35;27.35;;;4.25;;
54679;SDS011;40578;53.178;5.846;2024-01-27T07:10:01;28.40;;;4.22;;
54679;SDS011;40578;53.178;5.846;2024-01-27T07:12:27;21.38;;;4.78;;
54679;SDS011;40578;53.178;5.846;2024-01-27T07:14:53;20.57;;;4.00;;
54679;SDS011;40578;53.178;5.846;2024-01-27T07:17:22;22.25;;;4.55;;
54679;SDS011;40578;53.178;5.846;2024-01-27T07:19:47;14.43;;;3.23;;
54679;SDS011;40578;53.178;5.846;2024-01-27T07:22:13;22.17;;;3.70;;
54679;SDS011;40578;53.178;5.846;2024-01-27T07:24:39;21.30;;;4.97;;
54679;SDS011;40578;53.178;5.846;2024-01-27T07:27:04;22.23;;;3.43;;
54679;SDS011;40578;53.178;5.846;2024-01-27T07:29:30;27.73;;;5.27;;
54679;SDS011;40578;53.178;5.846;2024-01-27T07:31:56;20.10;;;4.40;;
54679;SDS011;40578;53.178;5.846;2024-01-27T07:34:21;32.07;;;4.67;;
54679;SDS011;40578;53.178;5.846;2024-01-27T07:36:47;29.00;;;4.53;;
54679;SDS011;40578;53.178;5.846;2024-01-27T07:39:15;26.17;;;3.90;;
54679;SDS011;40578;53.178;5.846;2024-01-27T07:41:41;24.13;;;4.27;;
54679;SDS011;40578;53.178;5.846;2024-01-27T07:44:11;23.55;;;4.53;;
54679;SDS011;40578;53.178;5.846;2024-01-27T07:46:38;20.33;;;3.53;;
54679;SDS011;40578;53.178;5.846;2024-01-27T07:49:08;26.75;;;4.28;;
54679;SDS011;40578;53.178;5.846;2024-01-27T07:51:34;25.25;;;5.00;;
54679;SDS011;40578;53.178;5.846;2024-01-27T07:54:00;26.33;;;4.80;;
54679;SDS011;40578;53.178;5.846;2024-01-27T07:56:26;29.20;;;4.18;;
54679;SDS011;40578;53.178;5.846;2024-01-27T07:58:52;28.08;;;4.22;;
54679;SDS011;40578;53.178;5.846;2024-01-27T08:01:18;33.33;;;4.53;;
54679;SDS011;40578;53.178;5.846;2024-01-27T08:03:44;27.13;;;4.93;;
54679;SDS011;40578;53.178;5.846;2024-01-27T08:06:13;25.33;;;4.27;;
54679;SDS011;40578;53.178;5.846;2024-01-27T08:08:44;23.48;;;3.65;;
54679;SDS011;40578;53.178;5.846;2024-01-27T08:11:11;18.33;;;4.18;;
54679;SDS011;40578;53.178;5.846;2024-01-27T08:13:37;20.80;;;4.35;;
54679;SDS011;40578;53.178;5.846;2024-01-27T08:16:03;18.33;;;4.53;;
54679;SDS011;40578;53.178;5.846;2024-01-27T08:18:30;28.02;;;4.13;;
54679;SDS011;40578;53.178;5.846;2024-01-27T08:20:56;27.52;;;4.40;;
54679;SDS011;40578;53.178;5.846;2024-01-27T08:23:22;18.00;;;3.83;;
54679;SDS011;40578;53.178;5.846;2024-01-27T08:25:48;30.35;;;4.68;;
54679;SDS011;40578;53.178;5.846;2024-01-27T08:28:17;28.40;;;4.85;;
54679;SDS011;40578;53.178;5.846;2024-01-27T08:30:43;19.63;;;4.07;;
54679;SDS011;40578;53.178;5.846;2024-01-27T08:33:09;32.63;;;5.17;;
54679;SDS011;40578;53.178;5.846;2024-01-27T08:35:35;28.80;;;4.72;;
54679;SDS011;40578;53.178;5.846;2024-01-27T08:38:01;22.63;;;4.53;;
54679;SDS011;40578;53.178;5.846;2024-01-27T08:40:29;28.88;;;5.63;;
54679;SDS011;40578;53.178;5.846;2024-01-27T08:42:54;25.00;;;4.80;;
54679;SDS011;40578;53.178;5.846;2024-01-27T08:45:20;24.23;;;4.77;;
54679;SDS011;40578;53.178;5.846;2024-01-27T08:47:46;20.43;;;5.53;;
54679;SDS011;40578;53.178;5.846;2024-01-27T08:50:11;21.67;;;4.93;;
54679;SDS011;40578;53.178;5.846;2024-01-27T08:52:37;31.03;;;6.03;;
54679;SDS011;40578;53.178;5.846;2024-01-27T08:55:03;25.60;;;6.07;;
54679;SDS011;40578;53.178;5.846;2024-01-27T08:57:29;28.00;;;6.35;;
54679;SDS011;40578;53.178;5.846;2024-01-27T08:59:54;27.73;;;5.70;;
54679;SDS011;40578;53.178;5.846;2024-01-27T09:02:20;30.00;;;6.43;;
54679;SDS011;40578;53.178;5.846;2024-01-27T09:04:45;28.90;;;7.40;;
54679;SDS011;40578;53.178;5.846;2024-01-27T09:07:11;23.20;;;6.27;;
54679;SDS011;40578;53.178;5.846;2024-01-27T09:09:37;28.02;;;7.88;;
54679;SDS011;40578;53.178;5.846;2024-01-27T09:12:05;18.08;;;5.13;;
54679;SDS011;40578;53.178;5.846;2024-01-27T09:14:31;26.52;;;6.40;;
54679;SDS011;40578;53.178;5.846;2024-01-27T09:16:59;31.50;;;6.30;;
54679;SDS011;40578;53.178;5.846;2024-01-27T09:19:25;26.40;;;6.47;;
54679;SDS011;40578;53.178;5.846;2024-01-27T09:21:51;22.73;;;5.53;;
54679;SDS011;40578;53.178;5.846;2024-01-27T09:24:17;27.73;;;7.07;;
54679;SDS011;40578;53.178;5.846;2024-01-27T09:26:42;33.40;;;6.90;;
54679;SDS011;40578;53.178;5.846;2024-01-27T09:29:08;24.13;;;7.03;;
54679;SDS011;40578;53.178;5.846;2024-01-27T09:31:34;31.25;;;7.45;;
54679;SDS011;40578;53.178;5.846;2024-01-27T09:34:00;33.53;;;7.27;;
54679;SDS011;40578;53.178;5.846;2024-01-27T09:36:27;34.67;;;7.65;;
54679;SDS011;40578;53.178;5.846;2024-01-27T09:38:53;23.33;;;5.97;;
54679;SDS011;40578;53.178;5.846;2024-01-27T09:41:19;38.67;;;7.10;;
54679;SDS011;40578;53.178;5.846;2024-01-27T09:43:46;30.75;;;6.60;;
54679;SDS011;40578;53.178;5.846;2024-01-27T09:46:13;22.05;;;5.60;;
54679;SDS011;40578;53.178;5.846;2024-01-27T09:48:40;22.27;;;6.57;;
54679;SDS011;40578;53.178;5.846;2024-01-27T09:51:07;32.45;;;6.30;;
54679;SDS011;40578;53.178;5.846;2024-01-27T09:53:35;29.55;;;7.50;;
54679;SDS011;40578;53.178;5.846;2024-01-27T09:56:01;30.65;;;6.63;;
54679;SDS011;40578;53.178;5.846;2024-01-27T09:58:29;28.85;;;7.53;;
54679;SDS011;40578;53.178;5.846;2024-01-27T10:00:58;23.40;;;5.85;;
54679;SDS011;40578;53.178;5.846;2024-01-27T10:03:26;22.48;;;6.40;;
54679;SDS011;40578;53.178;5.846;2024-01-27T10:05:53;18.73;;;5.65;;
54679;SDS011;40578;53.178;5.846;2024-01-27T10:08:20;25.40;;;6.35;;
54679;SDS011;40578;53.178;5.846;2024-01-27T10:10:47;21.85;;;5.88;;
54679;SDS011;40578;53.178;5.846;2024-01-27T10:13:16;22.97;;;7.27;;
54679;SDS011;40578;53.178;5.846;2024-01-27T10:16:12;27.70;;;6.72;;
54679;SDS011;40578;53.178;5.846;2024-01-27T10:18:37;23.10;;;6.28;;
54679;SDS011;40578;53.178;5.846;2024-01-27T10:21:15;29.43;;;6.80;;
54679;SDS011;40578;53.178;5.846;2024-01-27T10:23:41;24.67;;;7.05;;
54679;SDS011;40578;53.178;5.846;2024-01-27T10:26:10;26.23;;;6.07;;
54679;SDS011;40578;53.178;5.846;2024-01-27T10:28:36;32.60;;;6.95;;
54679;SDS011;40578;53.178;5.846;2024-01-27T10:31:08;32.90;;;8.00;;
54679;SDS011;40578;53.178;5.846;2024-01-27T10:33:34;27.75;;;7.90;;
54679;SDS011;40578;53.178;5.846;2024-01-27T10:36:00;26.37;;;7.37;;
54679;SDS011;40578;53.178;5.846;2024-01-27T10:38:38;23.60;;;7.27;;
54679;SDS011;40578;53.178;5.846;2024-01-27T10:41:07;22.60;;;7.65;;
54679;SDS011;40578;53.178;5.846;2024-01-27T10:43:35;28.70;;;7.88;;
54679;SDS011;40578;53.178;5.846;2024-01-27T10:46:03;23.63;;;7.10;;
54679;SDS011;40578;53.178;5.846;2024-01-27T10:48:31;25.35;;;6.95;;
54679;SDS011;40578;53.178;5.846;2024-01-27T10:50:59;22.25;;;6.70;;
54679;SDS011;40578;53.178;5.846;2024-01-27T10:53:28;26.02;;;7.00;;
54679;SDS011;40578;53.178;5.846;2024-01-27T10:55:57;25.77;;;6.50;;
54679;SDS011;40578;53.178;5.846;2024-01-27T10:58:23;32.45;;;8.15;;
54679;SDS011;40578;53.178;5.846;2024-01-27T11:00:50;20.88;;;6.18;;
54679;SDS011;40578;53.178;5.846;2024-01-27T11:03:18;27.25;;;6.90;;
54679;SDS011;40578;53.178;5.846;2024-01-27T11:05:44;31.10;;;7.82;;
54679;SDS011;40578;53.178;5.846;2024-01-27T11:08:12;26.85;;;6.57;;
54679;SDS011;40578;53.178;5.846;2024-01-27T11:10:38;29.92;;;6.43;;
54679;SDS011;40578;53.178;5.846;2024-01-27T11:13:05;20.65;;;5.60;;
54679;SDS011;40578;53.178;5.846;2024-01-27T11:15:33;28.17;;;5.82;;
54679;SDS011;40578;53.178;5.846;2024-01-27T11:17:59;24.60;;;6.45;;
54679;SDS011;40578;53.178;5.846;2024-01-27T11:20:27;25.48;;;6.10;;
54679;SDS011;40578;53.178;5.846;2024-01-27T11:22:53;30.63;;;5.80;;
54679;SDS011;40578;53.178;5.846;2024-01-27T11:25:22;20.08;;;4.35;;
54679;SDS011;40578;53.178;5.846;2024-01-27T11:27:47;25.60;;;5.73;;
54679;SDS011;40578;53.178;5.846;2024-01-27T11:30:29;24.37;;;6.07;;
54679;SDS011;40578;53.178;5.846;2024-01-27T11:33:00;22.45;;;5.95;;
54679;SDS011;40578;53.178;5.846;2024-01-27T11:35:26;18.10;;;4.38;;
54679;SDS011;40578;53.178;5.846;2024-01-27T11:37:53;23.80;;;4.97;;
54679;SDS011;40578;53.178;5.846;2024-01-27T11:40:20;20.30;;;4.95;;
54679;SDS011;40578;53.178;5.846;2024-01-27T11:43:01;21.17;;;4.90;;
54679;SDS011;40578;53.178;5.846;2024-01-27T11:45:28;22.17;;;5.63;;
54679;SDS011;40578;53.178;5.846;2024-01-27T11:47:57;23.63;;;4.95;;
54679;SDS011;40578;53.178;5.846;2024-01-27T11:50:25;25.20;;;6.25;;
54679;SDS011;40578;53.178;5.846;2024-01-27T11:52:50;29.77;;;5.37;;
54679;SDS011;40578;53.178;5.846;2024-01-27T11:55:16;28.17;;;4.93;;
54679;SDS011;40578;53.178;5.846;2024-01-27T11:57:44;28.00;;;5.53;;
54679;SDS011;40578;53.178;5.846;2024-01-27T12:00:09;24.90;;;5.73;;
54679;SDS011;40578;53.178;5.846;2024-01-27T12:02:36;26.23;;;5.75;;
54679;SDS011;40578;53.178;5.846;2024-01-27T12:05:03;22.85;;;6.22;;
54679;SDS011;40578;53.178;5.846;2024-01-27T12:07:29;18.67;;;5.72;;
54679;SDS011;40578;53.178;5.846;2024-01-27T12:09:56;18.95;;;4.88;;
54679;SDS011;40578;53.178;5.846;2024-01-27T12:12:22;18.30;;;4.53;;
54679;SDS011;40578;53.178;5.846;2024-01-27T12:14:48;22.23;;;4.87;;
54679;SDS011;40578;53.178;5.846;2024-01-27T12:17:15;19.48;;;5.32;;
54679;SDS011;40578;53.178;5.846;2024-01-27T12:19:46;19.65;;;4.53;;
54679;SDS011;40578;53.178;5.846;2024-01-27T12:24:51;18.63;;;4.20;;
54679;SDS011;40578;53.178;5.846;2024-01-27T12:27:17;19.10;;;4.80;;
54679;SDS011;40578;53.178;5.846;2024-01-27T12:29:42;20.23;;;3.87;;
54679;SDS011;40578;53.178;5.846;2024-01-27T12:32:08;16.27;;;4.72;;
54679;SDS011;40578;53.178;5.846;2024-01-27T12:34:43;22.37;;;5.33;;
54679;SDS011;40578;53.178;5.846;2024-01-27T12:37:10;19.48;;;4.45;;
54679;SDS011;40578;53.178;5.846;2024-01-27T12:42:03;19.88;;;4.93;;
54679;SDS011;40578;53.178;5.846;2024-01-27T12:44:29;21.30;;;5.13;;
54679;SDS011;40578;53.178;5.846;2024-01-27T12:46:55;18.20;;;3.93;;
54679;SDS011;40578;53.178;5.846;2024-01-27T12:49:22;16.02;;;3.97;;
54679;SDS011;40578;53.178;5.846;2024-01-27T12:51:47;27.10;;;5.17;;
54679;SDS011;40578;53.178;5.846;2024-01-27T12:54:13;20.47;;;4.53;;
54679;SDS011;40578;53.178;5.846;2024-01-27T12:56:40;17.77;;;3.63;;
54679;SDS011;40578;53.178;5.846;2024-01-27T12:59:05;22.53;;;3.97;;
54679;SDS011;40578;53.178;5.846;2024-01-27T13:03:59;18.88;;;3.63;;
54679;SDS011;40578;53.178;5.846;2024-01-27T13:06:25;20.25;;;3.80;;
54679;SDS011;40578;53.178;5.846;2024-01-27T13:08:51;28.38;;;4.53;;
54679;SDS011;40578;53.178;5.846;2024-01-27T13:11:17;19.40;;;3.77;;
54679;SDS011;40578;53.178;5.846;2024-01-27T13:13:44;19.90;;;4.32;;
54679;SDS011;40578;53.178;5.846;2024-01-27T13:16:10;19.97;;;3.93;;
54679;SDS011;40578;53.178;5.846;2024-01-27T13:18:35;15.30;;;3.17;;
54679;SDS011;40578;53.178;5.846;2024-01-27T13:21:01;17.20;;;3.67;;
54679;SDS011;40578;53.178;5.846;2024-01-27T13:23:29;20.35;;;3.75;;
54679;SDS011;40578;53.178;5.846;2024-01-27T13:25:55;12.87;;;2.90;;
54679;SDS011;40578;53.178;5.846;2024-01-27T13:28:20;21.87;;;3.40;;
54679;SDS011;40578;53.178;5.846;2024-01-27T13:30:46;17.63;;;3.13;;
54679;SDS011;40578;53.178;5.846;2024-01-27T13:33:11;11.13;;;2.80;;
54679;SDS011;40578;53.178;5.846;2024-01-27T13:35:38;24.13;;;4.50;;
54679;SDS011;40578;53.178;5.846;2024-01-27T13:38:05;16.23;;;3.33;;
54679;SDS011;40578;53.178;5.846;2024-01-27T13:40:31;23.63;;;4.05;;
54679;SDS011;40578;53.178;5.846;2024-01-27T13:42:56;19.20;;;3.67;;
54679;SDS011;40578;53.178;5.846;2024-01-27T13:45:23;18.40;;;3.92;;
54679;SDS011;40578;53.178;5.846;2024-01-27T13:47:48;19.07;;;3.33;;
54679;SDS011;40578;53.178;5.846;2024-01-27T13:50:14;16.43;;;3.20;;
54679;SDS011;40578;53.178;5.846;2024-01-27T13:52:40;20.37;;;4.07;;
54679;SDS011;40578;53.178;5.846;2024-01-27T13:55:08;15.50;;;3.38;;
54679;SDS011;40578;53.178;5.846;2024-01-27T13:57:34;16.98;;;4.15;;
54679;SDS011;40578;53.178;5.846;2024-01-27T14:00:00;14.82;;;2.65;;
54679;SDS011;40578;53.178;5.846;2024-01-27T14:02:26;15.85;;;3.13;;
54679;SDS011;40578;53.178;5.846;2024-01-27T14:04:52;24.43;;;4.20;;
54679;SDS011;40578;53.178;5.846;2024-01-27T14:07:17;16.57;;;3.67;;
54679;SDS011;40578;53.178;5.846;2024-01-27T14:09:43;20.67;;;3.77;;
54679;SDS011;40578;53.178;5.846;2024-01-27T14:12:10;16.30;;;3.10;;
54679;SDS011;40578;53.178;5.846;2024-01-27T14:14:35;19.53;;;4.13;;
54679;SDS011;40578;53.178;5.846;2024-01-27T14:17:04;16.23;;;3.17;;
54679;SDS011;40578;53.178;5.846;2024-01-27T14:19:29;18.67;;;3.28;;
54679;SDS011;40578;53.178;5.846;2024-01-27T14:21:55;21.33;;;3.07;;
54679;SDS011;40578;53.178;5.846;2024-01-27T14:24:21;19.33;;;3.50;;
54679;SDS011;40578;53.178;5.846;2024-01-27T14:26:46;18.40;;;3.97;;
54679;SDS011;40578;53.178;5.846;2024-01-27T14:29:12;22.77;;;4.50;;
54679;SDS011;40578;53.178;5.846;2024-01-27T14:31:38;20.70;;;3.57;;
54679;SDS011;40578;53.178;5.846;2024-01-27T14:34:03;21.30;;;3.30;;
54679;SDS011;40578;53.178;5.846;2024-01-27T14:36:29;18.07;;;3.93;;
54679;SDS011;40578;53.178;5.846;2024-01-27T14:38:55;14.05;;;3.28;;
54679;SDS011;40578;53.178;5.846;2024-01-27T14:41:21;20.50;;;4.00;;